sensor_id;sensor_type;location;lat;lon;timestamp;P1;durP1;ratioP1;P2;durP2;ratioP2
67757;SDS011;54562;47.620;18.786;2022-08-20T05:21:57;23.10;;;16.60;;
67757;SDS011;54562;47.620;18.786;2022-08-20T05:25:06;22.30;;;15.80;;
67757;SDS011;54562;47.620;18.786;2022-08-20T05:28:19;24.00;;;14.20;;
67757;SDS011;54562;47.620;18.786;2022-08-20T05:31:28;21.30;;;13.00;;
67757;SDS011;54562;47.620;18.786;2022-08-20T05:34:37;20.80;;;12.90;;
67757;SDS011;54562;47.620;18.786;2022-08-20T05:37:45;20.00;;;12.50;;
67757;SDS011;54562;47.620;18.786;2022-08-20T05:40:54;21.00;;;12.80;;
67757;SDS011;54562;47.620;18.786;2022-08-20T05:44:02;21.00;;;14.30;;
67757;SDS011;54562;47.620;18.786;2022-08-20T05:47:14;23.40;;;14.60;;
67757;SDS011;54562;47.620;18.786;2022-08-20T05:50:25;21.60;;;14.40;;
67757;SDS011;54562;47.620;18.786;2022-08-20T05:53:33;23.40;;;15.00;;
67757;SDS011;54562;47.620;18.786;2022-08-20T05:56:42;24.40;;;14.40;;
67757;SDS011;54562;47.620;18.786;2022-08-20T05:59:51;25.20;;;14.30;;
67757;SDS011;54562;47.620;18.786;2022-08-20T06:03:00;17.80;;;12.60;;
67757;SDS011;54562;47.620;18.786;2022-08-20T06:06:25;18.80;;;11.90;;
67757;SDS011;54562;47.620;18.786;2022-08-20T06:09:50;22.20;;;12.50;;
67757;SDS011;54562;47.620;18.786;2022-08-20T06:12:59;18.20;;;12.10;;
67757;SDS011;54562;47.620;18.786;2022-08-20T06:16:07;19.30;;;12.50;;
67757;SDS011;54562;47.620;18.786;2022-08-20T06:19:15;20.60;;;11.50;;
67757;SDS011;54562;47.620;18.786;2022-08-20T06:22:30;20.50;;;13.60;;
67757;SDS011;54562;47.620;18.786;2022-08-20T06:25:38;23.70;;;13.80;;
67757;SDS011;54562;47.620;18.786;2022-08-20T06:28:46;24.20;;;14.50;;
67757;SDS011;54562;47.620;18.786;2022-08-20T06:31:58;21.60;;;13.80;;
67757;SDS011;54562;47.620;18.786;2022-08-20T06:35:08;26.30;;;14.80;;
67757;SDS011;54562;47.620;18.786;2022-08-20T06:38:23;21.70;;;12.60;;
67757;SDS011;54562;47.620;18.786;2022-08-20T06:41:31;19.40;;;12.80;;
67757;SDS011;54562;47.620;18.786;2022-08-20T06:44:41;21.50;;;12.00;;
67757;SDS011;54562;47.620;18.786;2022-08-20T06:47:55;18.00;;;11.30;;
67757;SDS011;54562;47.620;18.786;2022-08-20T06:51:05;17.00;;;9.90;;
67757;SDS011;54562;47.620;18.786;2022-08-20T06:54:14;17.30;;;10.00;;
67757;SDS011;54562;47.620;18.786;2022-08-20T06:57:22;16.20;;;9.70;;
67757;SDS011;54562;47.620;18.786;2022-08-20T07:00:32;17.40;;;9.70;;
67757;SDS011;54562;47.620;18.786;2022-08-20T07:03:42;15.30;;;9.90;;
67757;SDS011;54562;47.620;18.786;2022-08-20T07:06:59;22.20;;;9.50;;
67757;SDS011;54562;47.620;18.786;2022-08-20T07:10:10;16.80;;;9.70;;
67757;SDS011;54562;47.620;18.786;2022-08-20T07:13:21;15.60;;;9.60;;
67757;SDS011;54562;47.620;18.786;2022-08-20T07:16:31;19.50;;;10.00;;
67757;SDS011;54562;47.620;18.786;2022-08-20T07:19:39;17.30;;;10.10;;
67757;SDS011;54562;47.620;18.786;2022-08-20T07:22:47;14.90;;;9.70;;
67757;SDS011;54562;47.620;18.786;2022-08-20T07:25:56;16.30;;;9.90;;
67757;SDS011;54562;47.620;18.786;2022-08-20T07:29:04;17.00;;;10.20;;
67757;SDS011;54562;47.620;18.786;2022-08-20T07:32:12;19.90;;;10.00;;
67757;SDS011;54562;47.620;18.786;2022-08-20T07:35:43;21.00;;;10.50;;
67757;SDS011;54562;47.620;18.786;2022-08-20T07:38:53;17.60;;;11.00;;
67757;SDS011;54562;47.620;18.786;2022-08-20T07:42:01;19.20;;;11.60;;
67757;SDS011;54562;47.620;18.786;2022-08-20T07:45:13;21.30;;;12.00;;
67757;SDS011;54562;47.620;18.786;2022-08-20T07:48:23;18.90;;;11.30;;
67757;SDS011;54562;47.620;18.786;2022-08-20T07:51:36;18.20;;;10.40;;
67757;SDS011;54562;47.620;18.786;2022-08-20T07:54:44;17.00;;;10.00;;
67757;SDS011;54562;47.620;18.786;2022-08-20T07:57:52;18.80;;;11.70;;
67757;SDS011;54562;47.620;18.786;2022-08-20T08:01:00;19.50;;;13.30;;
67757;SDS011;54562;47.620;18.786;2022-08-20T08:04:08;22.10;;;13.80;;
67757;SDS011;54562;47.620;18.786;2022-08-20T08:07:17;19.70;;;13.70;;
67757;SDS011;54562;47.620;18.786;2022-08-20T08:10:26;24.30;;;14.40;;
67757;SDS011;54562;47.620;18.786;2022-08-20T08:13:37;22.00;;;14.40;;
67757;SDS011;54562;47.620;18.786;2022-08-20T08:16:46;17.80;;;14.00;;
67757;SDS011;54562;47.620;18.786;2022-08-20T08:19:54;20.50;;;13.20;;
67757;SDS011;54562;47.620;18.786;2022-08-20T08:23:03;19.00;;;12.50;;
67757;SDS011;54562;47.620;18.786;2022-08-20T08:26:17;15.80;;;9.30;;
67757;SDS011;54562;47.620;18.786;2022-08-20T08:29:26;17.30;;;10.10;;
67757;SDS011;54562;47.620;18.786;2022-08-20T08:32:35;14.90;;;9.00;;
67757;SDS011;54562;47.620;18.786;2022-08-20T08:39:13;11.90;;;7.20;;
67757;SDS011;54562;47.620;18.786;2022-08-20T08:42:25;15.50;;;7.60;;
67757;SDS011;54562;47.620;18.786;2022-08-20T08:45:49;13.90;;;8.00;;
67757;SDS011;54562;47.620;18.786;2022-08-20T08:49:06;14.30;;;8.00;;
67757;SDS011;54562;47.620;18.786;2022-08-20T08:52:20;17.00;;;7.90;;
67757;SDS011;54562;47.620;18.786;2022-08-20T08:55:31;14.20;;;8.10;;
67757;SDS011;54562;47.620;18.786;2022-08-20T08:58:40;11.60;;;7.90;;
67757;SDS011;54562;47.620;18.786;2022-08-20T09:01:51;15.80;;;7.70;;
67757;SDS011;54562;47.620;18.786;2022-08-20T09:05:09;13.60;;;7.80;;
67757;SDS011;54562;47.620;18.786;2022-08-20T09:08:25;14.40;;;8.60;;
67757;SDS011;54562;47.620;18.786;2022-08-20T09:11:46;16.00;;;7.70;;
67757;SDS011;54562;47.620;18.786;2022-08-20T09:14:57;12.80;;;7.60;;
67757;SDS011;54562;47.620;18.786;2022-08-20T09:18:05;17.80;;;8.20;;
67757;SDS011;54562;47.620;18.786;2022-08-20T09:21:13;12.80;;;7.50;;
67757;SDS011;54562;47.620;18.786;2022-08-20T09:24:22;15.00;;;7.60;;
67757;SDS011;54562;47.620;18.786;2022-08-20T09:27:30;15.20;;;7.60;;
67757;SDS011;54562;47.620;18.786;2022-08-20T09:30:40;15.40;;;8.30;;
67757;SDS011;54562;47.620;18.786;2022-08-20T09:33:50;16.50;;;8.40;;
67757;SDS011;54562;47.620;18.786;2022-08-20T09:36:58;15.70;;;9.40;;
67757;SDS011;54562;47.620;18.786;2022-08-20T09:40:09;19.70;;;9.30;;
67757;SDS011;54562;47.620;18.786;2022-08-20T09:43:26;17.90;;;8.80;;
67757;SDS011;54562;47.620;18.786;2022-08-20T09:46:35;16.50;;;8.10;;
67757;SDS011;54562;47.620;18.786;2022-08-20T09:49:43;12.70;;;7.60;;
67757;SDS011;54562;47.620;18.786;2022-08-20T09:52:53;14.20;;;8.10;;
67757;SDS011;54562;47.620;18.786;2022-08-20T09:56:04;13.80;;;7.70;;
67757;SDS011;54562;47.620;18.786;2022-08-20T09:59:14;14.10;;;8.10;;
67757;SDS011;54562;47.620;18.786;2022-08-20T10:02:23;13.90;;;7.70;;
67757;SDS011;54562;47.620;18.786;2022-08-20T10:05:31;14.80;;;7.10;;
67757;SDS011;54562;47.620;18.786;2022-08-20T10:08:39;13.40;;;7.20;;
67757;SDS011;54562;47.620;18.786;2022-08-20T10:11:47;13.70;;;6.50;;
67757;SDS011;54562;47.620;18.786;2022-08-20T10:14:55;12.00;;;6.60;;
67757;SDS011;54562;47.620;18.786;2022-08-20T10:18:05;15.10;;;6.60;;
67757;SDS011;54562;47.620;18.786;2022-08-20T10:21:16;16.00;;;7.20;;
67757;SDS011;54562;47.620;18.786;2022-08-20T10:24:24;14.10;;;7.50;;
67757;SDS011;54562;47.620;18.786;2022-08-20T10:27:33;14.20;;;7.60;;
67757;SDS011;54562;47.620;18.786;2022-08-20T10:30:45;15.20;;;7.70;;
67757;SDS011;54562;47.620;18.786;2022-08-20T10:33:53;14.20;;;7.20;;
67757;SDS011;54562;47.620;18.786;2022-08-20T10:51:37;13.60;;;5.70;;
67757;SDS011;54562;47.620;18.786;2022-08-20T10:54:46;12.80;;;5.50;;
67757;SDS011;54562;47.620;18.786;2022-08-20T10:57:54;13.30;;;5.40;;
67757;SDS011;54562;47.620;18.786;2022-08-20T11:01:02;10.40;;;5.40;;
67757;SDS011;54562;47.620;18.786;2022-08-20T11:04:10;12.10;;;5.50;;
67757;SDS011;54562;47.620;18.786;2022-08-20T11:07:20;15.80;;;5.80;;
67757;SDS011;54562;47.620;18.786;2022-08-20T11:10:53;13.10;;;5.70;;
67757;SDS011;54562;47.620;18.786;2022-08-20T11:14:05;12.30;;;5.40;;
67757;SDS011;54562;47.620;18.786;2022-08-20T11:17:15;11.80;;;5.40;;
67757;SDS011;54562;47.620;18.786;2022-08-20T11:20:26;15.00;;;5.30;;
67757;SDS011;54562;47.620;18.786;2022-08-20T11:26:42;12.60;;;5.10;;
67757;SDS011;54562;47.620;18.786;2022-08-20T11:29:52;10.70;;;4.70;;
67757;SDS011;54562;47.620;18.786;2022-08-20T11:33:01;10.50;;;4.70;;
67757;SDS011;54562;47.620;18.786;2022-08-20T11:36:10;12.00;;;4.70;;
67757;SDS011;54562;47.620;18.786;2022-08-20T11:39:18;8.70;;;4.50;;
67757;SDS011;54562;47.620;18.786;2022-08-20T11:42:25;10.20;;;4.80;;
67757;SDS011;54562;47.620;18.786;2022-08-20T11:45:35;10.30;;;4.20;;
67757;SDS011;54562;47.620;18.786;2022-08-20T11:48:42;8.50;;;3.90;;
67757;SDS011;54562;47.620;18.786;2022-08-20T11:51:54;8.00;;;4.50;;
67757;SDS011;54562;47.620;18.786;2022-08-20T11:55:02;9.20;;;4.50;;
67757;SDS011;54562;47.620;18.786;2022-08-20T11:58:13;10.20;;;4.40;;
67757;SDS011;54562;47.620;18.786;2022-08-20T12:01:20;9.50;;;4.10;;
67757;SDS011;54562;47.620;18.786;2022-08-20T12:04:28;9.70;;;4.30;;
67757;SDS011;54562;47.620;18.786;2022-08-20T12:07:39;7.00;;;4.00;;
67757;SDS011;54562;47.620;18.786;2022-08-20T12:10:50;12.10;;;3.80;;
67757;SDS011;54562;47.620;18.786;2022-08-20T12:13:58;32.50;;;5.20;;
67757;SDS011;54562;47.620;18.786;2022-08-20T12:17:10;11.00;;;4.10;;
67757;SDS011;54562;47.620;18.786;2022-08-20T12:20:22;12.30;;;4.20;;
67757;SDS011;54562;47.620;18.786;2022-08-20T12:23:30;9.50;;;4.00;;
67757;SDS011;54562;47.620;18.786;2022-08-20T12:26:38;9.80;;;3.50;;
67757;SDS011;54562;47.620;18.786;2022-08-20T12:29:47;10.70;;;4.20;;
67757;SDS011;54562;47.620;18.786;2022-08-20T12:32:57;10.50;;;3.60;;
67757;SDS011;54562;47.620;18.786;2022-08-20T12:36:06;11.20;;;4.10;;
67757;SDS011;54562;47.620;18.786;2022-08-20T12:39:14;7.20;;;3.20;;
67757;SDS011;54562;47.620;18.786;2022-08-20T12:42:24;6.60;;;3.10;;
67757;SDS011;54562;47.620;18.786;2022-08-20T12:45:34;9.10;;;3.60;;
67757;SDS011;54562;47.620;18.786;2022-08-20T12:48:42;10.10;;;3.60;;
67757;SDS011;54562;47.620;18.786;2022-08-20T12:51:50;8.20;;;3.70;;
67757;SDS011;54562;47.620;18.786;2022-08-20T12:58:34;8.80;;;3.90;;
67757;SDS011;54562;47.620;18.786;2022-08-20T13:01:49;11.70;;;4.50;;
67757;SDS011;54562;47.620;18.786;2022-08-20T13:08:10;10.50;;;3.90;;
67757;SDS011;54562;47.620;18.786;2022-08-20T13:11:18;10.90;;;3.90;;
67757;SDS011;54562;47.620;18.786;2022-08-20T13:14:26;11.00;;;4.50;;
67757;SDS011;54562;47.620;18.786;2022-08-20T13:17:35;12.20;;;4.60;;
67757;SDS011;54562;47.620;18.786;2022-08-20T13:20:43;11.20;;;4.70;;
67757;SDS011;54562;47.620;18.786;2022-08-20T13:23:51;9.40;;;4.90;;
67757;SDS011;54562;47.620;18.786;2022-08-20T13:27:07;9.00;;;4.60;;
67757;SDS011;54562;47.620;18.786;2022-08-20T13:30:18;12.80;;;4.80;;
67757;SDS011;54562;47.620;18.786;2022-08-20T13:33:27;8.80;;;4.10;;
67757;SDS011;54562;47.620;18.786;2022-08-20T13:36:36;9.20;;;4.30;;
67757;SDS011;54562;47.620;18.786;2022-08-20T13:39:45;9.40;;;4.30;;
67757;SDS011;54562;47.620;18.786;2022-08-20T13:42:53;13.40;;;4.40;;
67757;SDS011;54562;47.620;18.786;2022-08-20T13:46:02;10.40;;;4.60;;
67757;SDS011;54562;47.620;18.786;2022-08-20T13:49:10;12.50;;;4.40;;
67757;SDS011;54562;47.620;18.786;2022-08-20T13:52:18;9.90;;;4.90;;
67757;SDS011;54562;47.620;18.786;2022-08-20T13:55:28;9.40;;;4.60;;
67757;SDS011;54562;47.620;18.786;2022-08-20T13:58:37;9.70;;;4.40;;
67757;SDS011;54562;47.620;18.786;2022-08-20T14:01:45;10.40;;;4.70;;
67757;SDS011;54562;47.620;18.786;2022-08-20T14:04:54;12.50;;;4.30;;
67757;SDS011;54562;47.620;18.786;2022-08-20T14:08:08;12.20;;;4.50;;
67757;SDS011;54562;47.620;18.786;2022-08-20T14:11:19;10.30;;;4.10;;
67757;SDS011;54562;47.620;18.786;2022-08-20T14:14:27;8.90;;;4.60;;
67757;SDS011;54562;47.620;18.786;2022-08-20T14:17:36;10.30;;;4.60;;
67757;SDS011;54562;47.620;18.786;2022-08-20T14:20:46;7.80;;;3.60;;
67757;SDS011;54562;47.620;18.786;2022-08-20T14:23:55;9.50;;;4.40;;
67757;SDS011;54562;47.620;18.786;2022-08-20T14:27:06;11.20;;;4.50;;
67757;SDS011;54562;47.620;18.786;2022-08-20T14:30:17;8.20;;;4.00;;
67757;SDS011;54562;47.620;18.786;2022-08-20T14:33:26;9.10;;;3.90;;
67757;SDS011;54562;47.620;18.786;2022-08-20T14:36:34;11.80;;;4.20;;
67757;SDS011;54562;47.620;18.786;2022-08-20T14:39:43;9.30;;;3.70;;
67757;SDS011;54562;47.620;18.786;2022-08-20T14:42:54;9.00;;;3.90;;
67757;SDS011;54562;47.620;18.786;2022-08-20T14:46:03;10.60;;;3.80;;
67757;SDS011;54562;47.620;18.786;2022-08-20T14:52:20;10.20;;;4.10;;
67757;SDS011;54562;47.620;18.786;2022-08-20T14:55:34;10.70;;;3.70;;
67757;SDS011;54562;47.620;18.786;2022-08-20T14:58:43;8.20;;;3.70;;
67757;SDS011;54562;47.620;18.786;2022-08-20T15:01:51;11.30;;;4.30;;
67757;SDS011;54562;47.620;18.786;2022-08-20T15:05:00;10.10;;;4.20;;
67757;SDS011;54562;47.620;18.786;2022-08-20T15:08:11;13.10;;;4.10;;
67757;SDS011;54562;47.620;18.786;2022-08-20T15:11:19;12.10;;;4.10;;
67757;SDS011;54562;47.620;18.786;2022-08-20T15:18:40;9.60;;;4.10;;
67757;SDS011;54562;47.620;18.786;2022-08-20T15:24:58;8.80;;;4.20;;
67757;SDS011;54562;47.620;18.786;2022-08-20T15:28:07;9.80;;;4.40;;
67757;SDS011;54562;47.620;18.786;2022-08-20T15:34:23;10.70;;;4.40;;
67757;SDS011;54562;47.620;18.786;2022-08-20T15:37:31;11.10;;;4.50;;
67757;SDS011;54562;47.620;18.786;2022-08-20T15:40:39;11.20;;;4.70;;
67757;SDS011;54562;47.620;18.786;2022-08-20T15:43:47;11.00;;;4.30;;
67757;SDS011;54562;47.620;18.786;2022-08-20T15:46:55;12.00;;;4.50;;
67757;SDS011;54562;47.620;18.786;2022-08-20T15:50:21;12.00;;;4.30;;
67757;SDS011;54562;47.620;18.786;2022-08-20T15:53:45;9.70;;;4.40;;
67757;SDS011;54562;47.620;18.786;2022-08-20T16:00:15;9.50;;;4.50;;
67757;SDS011;54562;47.620;18.786;2022-08-20T16:03:38;10.10;;;4.90;;
67757;SDS011;54562;47.620;18.786;2022-08-20T16:07:09;11.30;;;5.40;;
67757;SDS011;54562;47.620;18.786;2022-08-20T16:10:29;9.90;;;4.70;;
67757;SDS011;54562;47.620;18.786;2022-08-20T16:13:49;12.80;;;5.20;;
67757;SDS011;54562;47.620;18.786;2022-08-20T16:17:06;11.60;;;5.00;;
67757;SDS011;54562;47.620;18.786;2022-08-20T16:20:21;10.90;;;5.10;;
67757;SDS011;54562;47.620;18.786;2022-08-20T16:23:41;11.00;;;5.10;;
67757;SDS011;54562;47.620;18.786;2022-08-20T16:27:00;10.50;;;5.10;;
67757;SDS011;54562;47.620;18.786;2022-08-20T16:30:23;13.40;;;5.30;;
67757;SDS011;54562;47.620;18.786;2022-08-20T16:33:40;11.90;;;5.00;;
67757;SDS011;54562;47.620;18.786;2022-08-20T16:37:05;12.10;;;5.60;;
67757;SDS011;54562;47.620;18.786;2022-08-20T16:40:28;8.80;;;5.00;;
67757;SDS011;54562;47.620;18.786;2022-08-20T16:43:47;13.60;;;5.70;;
67757;SDS011;54562;47.620;18.786;2022-08-20T16:50:21;9.50;;;5.30;;
67757;SDS011;54562;47.620;18.786;2022-08-20T16:53:32;11.10;;;6.10;;
67757;SDS011;54562;47.620;18.786;2022-08-20T16:56:44;11.00;;;5.80;;
67757;SDS011;54562;47.620;18.786;2022-08-20T17:00:04;10.70;;;5.90;;
67757;SDS011;54562;47.620;18.786;2022-08-20T17:03:27;11.00;;;6.10;;
67757;SDS011;54562;47.620;18.786;2022-08-20T17:06:48;10.90;;;6.00;;
67757;SDS011;54562;47.620;18.786;2022-08-20T17:10:11;12.90;;;6.50;;
67757;SDS011;54562;47.620;18.786;2022-08-20T17:13:27;11.70;;;5.50;;
67757;SDS011;54562;47.620;18.786;2022-08-20T17:16:42;12.70;;;5.90;;
67757;SDS011;54562;47.620;18.786;2022-08-20T17:19:57;12.50;;;6.20;;
67757;SDS011;54562;47.620;18.786;2022-08-20T17:23:12;10.60;;;6.40;;
67757;SDS011;54562;47.620;18.786;2022-08-20T17:26:24;14.90;;;6.80;;
67757;SDS011;54562;47.620;18.786;2022-08-20T17:29:50;13.80;;;6.70;;
67757;SDS011;54562;47.620;18.786;2022-08-20T17:33:04;11.00;;;6.50;;
67757;SDS011;54562;47.620;18.786;2022-08-20T17:36:19;12.80;;;6.50;;
67757;SDS011;54562;47.620;18.786;2022-08-20T17:39:30;15.10;;;6.90;;
67757;SDS011;54562;47.620;18.786;2022-08-20T17:42:47;12.00;;;7.20;;
67757;SDS011;54562;47.620;18.786;2022-08-20T17:46:03;14.60;;;6.70;;
67757;SDS011;54562;47.620;18.786;2022-08-20T17:49:20;13.30;;;6.80;;
67757;SDS011;54562;47.620;18.786;2022-08-20T17:52:40;12.00;;;7.00;;
67757;SDS011;54562;47.620;18.786;2022-08-20T17:55:53;12.40;;;6.70;;
67757;SDS011;54562;47.620;18.786;2022-08-20T17:59:10;14.30;;;7.10;;
67757;SDS011;54562;47.620;18.786;2022-08-20T18:02:40;17.20;;;7.30;;
67757;SDS011;54562;47.620;18.786;2022-08-20T18:05:53;15.40;;;6.80;;
67757;SDS011;54562;47.620;18.786;2022-08-20T18:09:12;13.80;;;6.80;;
67757;SDS011;54562;47.620;18.786;2022-08-20T18:12:32;16.90;;;7.00;;
67757;SDS011;54562;47.620;18.786;2022-08-20T18:15:51;14.30;;;7.10;;
67757;SDS011;54562;47.620;18.786;2022-08-20T18:19:13;12.30;;;7.20;;
67757;SDS011;54562;47.620;18.786;2022-08-20T18:22:29;12.70;;;7.60;;
67757;SDS011;54562;47.620;18.786;2022-08-20T18:25:44;13.00;;;7.60;;
67757;SDS011;54562;47.620;18.786;2022-08-20T18:28:59;13.10;;;6.50;;
67757;SDS011;54562;47.620;18.786;2022-08-20T18:32:35;12.60;;;6.70;;
67757;SDS011;54562;47.620;18.786;2022-08-20T18:35:44;12.40;;;6.40;;
67757;SDS011;54562;47.620;18.786;2022-08-20T18:39:01;15.50;;;6.90;;
67757;SDS011;54562;47.620;18.786;2022-08-20T18:42:24;14.90;;;7.00;;
67757;SDS011;54562;47.620;18.786;2022-08-20T18:45:36;14.50;;;7.10;;
67757;SDS011;54562;47.620;18.786;2022-08-20T18:48:57;14.70;;;7.00;;
67757;SDS011;54562;47.620;18.786;2022-08-20T18:52:11;12.50;;;6.20;;
67757;SDS011;54562;47.620;18.786;2022-08-20T18:55:32;16.00;;;6.90;;
67757;SDS011;54562;47.620;18.786;2022-08-20T18:58:53;13.00;;;6.40;;
67757;SDS011;54562;47.620;18.786;2022-08-20T19:02:19;13.00;;;6.60;;
67757;SDS011;54562;47.620;18.786;2022-08-20T19:05:39;15.10;;;6.40;;
67757;SDS011;54562;47.620;18.786;2022-08-20T19:09:02;12.00;;;6.60;;
67757;SDS011;54562;47.620;18.786;2022-08-20T19:16:24;13.30;;;6.00;;
67757;SDS011;54562;47.620;18.786;2022-08-20T19:19:38;14.40;;;6.30;;
67757;SDS011;54562;47.620;18.786;2022-08-20T19:22:47;13.00;;;6.10;;
67757;SDS011;54562;47.620;18.786;2022-08-20T19:26:02;13.50;;;6.40;;
67757;SDS011;54562;47.620;18.786;2022-08-20T19:29:31;12.90;;;7.00;;
67757;SDS011;54562;47.620;18.786;2022-08-20T19:32:50;13.80;;;6.70;;
67757;SDS011;54562;47.620;18.786;2022-08-20T19:36:12;11.70;;;7.40;;
67757;SDS011;54562;47.620;18.786;2022-08-20T19:39:25;16.00;;;7.20;;
67757;SDS011;54562;47.620;18.786;2022-08-20T19:42:41;13.50;;;7.70;;
67757;SDS011;54562;47.620;18.786;2022-08-20T19:45:51;15.30;;;7.60;;
67757;SDS011;54562;47.620;18.786;2022-08-20T19:49:22;14.80;;;7.60;;
67757;SDS011;54562;47.620;18.786;2022-08-20T19:52:41;12.00;;;6.80;;
67757;SDS011;54562;47.620;18.786;2022-08-20T19:56:00;15.20;;;6.90;;
67757;SDS011;54562;47.620;18.786;2022-08-20T19:59:18;13.50;;;7.40;;
67757;SDS011;54562;47.620;18.786;2022-08-20T20:02:29;16.20;;;8.00;;
67757;SDS011;54562;47.620;18.786;2022-08-20T20:05:50;15.20;;;7.60;;
67757;SDS011;54562;47.620;18.786;2022-08-20T20:09:02;13.80;;;7.80;;
67757;SDS011;54562;47.620;18.786;2022-08-20T20:12:15;13.90;;;8.00;;
67757;SDS011;54562;47.620;18.786;2022-08-20T20:15:27;13.70;;;8.00;;
67757;SDS011;54562;47.620;18.786;2022-08-20T20:18:38;11.90;;;7.70;;
67757;SDS011;54562;47.620;18.786;2022-08-20T20:21:50;13.60;;;8.00;;
67757;SDS011;54562;47.620;18.786;2022-08-20T20:25:38;14.20;;;8.10;;
67757;SDS011;54562;47.620;18.786;2022-08-20T20:28:52;12.10;;;7.20;;
67757;SDS011;54562;47.620;18.786;2022-08-20T20:32:16;12.00;;;7.60;;
67757;SDS011;54562;47.620;18.786;2022-08-20T20:35:29;10.90;;;6.80;;
67757;SDS011;54562;47.620;18.786;2022-08-20T20:38:50;11.60;;;7.30;;
67757;SDS011;54562;47.620;18.786;2022-08-20T20:42:03;10.20;;;6.60;;
67757;SDS011;54562;47.620;18.786;2022-08-20T20:45:18;12.80;;;7.00;;
67757;SDS011;54562;47.620;18.786;2022-08-20T20:48:29;10.30;;;6.60;;
67757;SDS011;54562;47.620;18.786;2022-08-20T20:51:56;9.40;;;6.80;;
67757;SDS011;54562;47.620;18.786;2022-08-20T20:55:12;11.20;;;6.80;;
67757;SDS011;54562;47.620;18.786;2022-08-20T20:58:28;9.80;;;6.50;;
67757;SDS011;54562;47.620;18.786;2022-08-20T21:01:37;9.30;;;6.10;;
67757;SDS011;54562;47.620;18.786;2022-08-20T21:04:53;9.20;;;5.80;;
67757;SDS011;54562;47.620;18.786;2022-08-20T21:08:04;8.50;;;5.60;;
67757;SDS011;54562;47.620;18.786;2022-08-20T21:11:13;9.00;;;5.50;;
67757;SDS011;54562;47.620;18.786;2022-08-20T21:14:24;10.90;;;5.90;;
67757;SDS011;54562;47.620;18.786;2022-08-20T21:17:32;10.90;;;6.00;;
67757;SDS011;54562;47.620;18.786;2022-08-20T21:20:40;9.20;;;5.60;;
67757;SDS011;54562;47.620;18.786;2022-08-20T21:23:51;8.40;;;5.80;;
67757;SDS011;54562;47.620;18.786;2022-08-20T21:26:59;10.90;;;5.90;;
67757;SDS011;54562;47.620;18.786;2022-08-20T21:30:09;8.50;;;5.80;;
67757;SDS011;54562;47.620;18.786;2022-08-20T21:33:18;8.30;;;5.60;;
67757;SDS011;54562;47.620;18.786;2022-08-20T21:36:27;9.20;;;5.80;;
67757;SDS011;54562;47.620;18.786;2022-08-20T21:39:35;9.60;;;5.50;;
67757;SDS011;54562;47.620;18.786;2022-08-20T21:42:43;9.30;;;5.70;;
67757;SDS011;54562;47.620;18.786;2022-08-20T21:45:52;8.50;;;5.70;;
67757;SDS011;54562;47.620;18.786;2022-08-20T21:49:00;9.30;;;5.70;;
67757;SDS011;54562;47.620;18.786;2022-08-20T21:52:09;8.10;;;5.40;;
67757;SDS011;54562;47.620;18.786;2022-08-20T21:55:17;8.30;;;5.60;;
67757;SDS011;54562;47.620;18.786;2022-08-20T21:58:25;7.90;;;5.60;;
67757;SDS011;54562;47.620;18.786;2022-08-20T22:01:33;8.00;;;5.60;;
67757;SDS011;54562;47.620;18.786;2022-08-20T22:04:42;9.60;;;5.10;;
67757;SDS011;54562;47.620;18.786;2022-08-20T22:07:51;7.50;;;4.90;;
67757;SDS011;54562;47.620;18.786;2022-08-20T22:10:59;7.70;;;5.10;;
67757;SDS011;54562;47.620;18.786;2022-08-20T22:14:10;7.20;;;4.80;;
67757;SDS011;54562;47.620;18.786;2022-08-20T22:17:20;7.50;;;5.00;;
67757;SDS011;54562;47.620;18.786;2022-08-20T22:20:29;7.20;;;5.00;;
67757;SDS011;54562;47.620;18.786;2022-08-20T22:23:37;8.00;;;5.20;;
67757;SDS011;54562;47.620;18.786;2022-08-20T22:26:45;7.50;;;5.00;;
67757;SDS011;54562;47.620;18.786;2022-08-20T22:29:53;7.50;;;4.90;;
67757;SDS011;54562;47.620;18.786;2022-08-20T22:33:07;8.10;;;5.30;;
67757;SDS011;54562;47.620;18.786;2022-08-20T22:36:18;9.20;;;5.20;;
67757;SDS011;54562;47.620;18.786;2022-08-20T22:39:28;7.40;;;4.90;;
67757;SDS011;54562;47.620;18.786;2022-08-20T22:42:36;6.90;;;4.70;;
67757;SDS011;54562;47.620;18.786;2022-08-20T22:45:46;8.20;;;4.70;;
67757;SDS011;54562;47.620;18.786;2022-08-20T22:48:57;7.20;;;4.70;;
67757;SDS011;54562;47.620;18.786;2022-08-20T22:52:06;7.40;;;4.50;;
67757;SDS011;54562;47.620;18.786;2022-08-20T22:55:16;8.10;;;4.70;;
67757;SDS011;54562;47.620;18.786;2022-08-20T22:58:24;7.10;;;4.60;;
67757;SDS011;54562;47.620;18.786;2022-08-20T23:01:35;7.00;;;4.50;;
67757;SDS011;54562;47.620;18.786;2022-08-20T23:04:43;6.30;;;4.20;;
67757;SDS011;54562;47.620;18.786;2022-08-20T23:07:56;7.30;;;4.10;;
67757;SDS011;54562;47.620;18.786;2022-08-20T23:11:05;7.40;;;4.20;;
67757;SDS011;54562;47.620;18.786;2022-08-20T23:14:14;7.10;;;4.20;;
67757;SDS011;54562;47.620;18.786;2022-08-20T23:17:30;7.40;;;4.60;;
67757;SDS011;54562;47.620;18.786;2022-08-20T23:20:39;7.30;;;4.70;;
67757;SDS011;54562;47.620;18.786;2022-08-20T23:23:50;7.30;;;4.70;;
67757;SDS011;54562;47.620;18.786;2022-08-20T23:26:58;7.50;;;4.40;;
67757;SDS011;54562;47.620;18.786;2022-08-20T23:30:08;7.50;;;4.40;;
67757;SDS011;54562;47.620;18.786;2022-08-20T23:33:17;8.40;;;4.70;;
67757;SDS011;54562;47.620;18.786;2022-08-20T23:36:25;7.40;;;5.10;;
67757;SDS011;54562;47.620;18.786;2022-08-20T23:39:34;7.70;;;4.80;;
67757;SDS011;54562;47.620;18.786;2022-08-20T23:42:42;8.00;;;5.30;;
67757;SDS011;54562;47.620;18.786;2022-08-20T23:45:50;7.50;;;4.80;;
67757;SDS011;54562;47.620;18.786;2022-08-20T23:49:07;7.20;;;4.70;;
67757;SDS011;54562;47.620;18.786;2022-08-20T23:52:16;8.60;;;5.00;;
67757;SDS011;54562;47.620;18.786;2022-08-20T23:55:25;9.10;;;4.90;;
67757;SDS011;54562;47.620;18.786;2022-08-20T23:58:34;8.50;;;5.40;;
